ADDS METAR Data INFO
IDs: Format: Raw Decoded Include TAF

Data at: 1040 UTC 19 Oct 2017

KMNH 191023Z AUTO 20010KT 10SM CLR 08/M05 A3018 RMK AO2
KMNH 191006Z AUTO 20009KT 10SM CLR 07/M04 A3018 RMK AO2
KMNH 190942Z AUTO 20010KT 10SM CLR 06/M04 A3019 RMK AO2
KMNH 190924Z AUTO 20011KT 10SM CLR 06/M03 A3019 RMK AO2
KMNH 190907Z AUTO 20011KT 10SM CLR 06/M04 A3020 RMK AO2
KMNH 190844Z AUTO 19012KT 10SM CLR 06/M04 A3021 RMK AO2
KMNH 190825Z AUTO 19010KT 10SM CLR 08/M04 A3021 RMK AO2
KMNH 190806Z AUTO 19011KT 10SM CLR 08/M05 A3022 RMK AO2
KMNH 190743Z AUTO 19011KT 10SM CLR 07/M06 A3022 RMK AO2
KMNH 190724Z AUTO 19012KT 10SM CLR 08/M06 A3023 RMK AO2
KMNH 190706Z AUTO 18014KT 10SM CLR 08/M07 A3024 RMK AO2
KMNH 190647Z AUTO 18012KT 10SM CLR 07/M07 A3024 RMK AO2
KMNH 190623Z AUTO 18012KT 10SM CLR 08/M06 A3025 RMK AO2
KMNH 190606Z AUTO 18011KT 10SM CLR 08/M05 A3025 RMK AO2
KMNH 190544Z AUTO 18013KT 10SM CLR 08/M05 A3025 RMK AO2
KMNH 190526Z AUTO 17010KT 10SM CLR 07/M05 A3026 RMK AO2
KMNH 190507Z AUTO 18011KT 10SM CLR 08/M05 A3026 RMK AO2
KMNH 190447Z AUTO 18012KT 10SM CLR 09/M05 A3026 RMK AO2
KMNH 190423Z AUTO 17012KT 10SM CLR 08/M05 A3026 RMK AO2
KMNH 190406Z AUTO 18012KT 10SM CLR 08/M06 A3026 RMK AO2
KMNH 190346Z AUTO 18011KT 10SM CLR 08/M06 A3026 RMK AO2
KMNH 190323Z AUTO 17012KT 10SM CLR 09/M07 A3026 RMK AO2
KMNH 190306Z AUTO 17012KT 10SM CLR 10/M07 A3026 RMK AO2
KMNH 190247Z AUTO 17012KT 10SM CLR 10/M08 A3026 RMK AO2
KMNH 190224Z AUTO 16008KT 10SM CLR 10/M08 A3026 RMK AO2
KMNH 190206Z AUTO 17011KT 10SM CLR 10/M08 A3026 RMK AO2
KMNH 190107Z AUTO 17010KT 10SM CLR 10/M09 A3025 RMK AO2
KMNH 190046Z AUTO 17010KT 10SM CLR 11/M10 A3025 RMK AO2
KMNH 190028Z AUTO 16008KT 10SM CLR 12/M10 A3025 RMK AO2
KMNH 190006Z AUTO 15008KT 10SM CLR 12/M09 A3025 RMK AO2
KMNH 182348Z AUTO 14006KT 10SM CLR 13/M09 A3025 RMK AO2
KMNH 182325Z AUTO 13007KT 10SM CLR 16/M09 A3024 RMK AO2
KMNH 182306Z AUTO 12007KT 10SM CLR 18/M10 A3025 RMK AO2
KMNH 182246Z AUTO 11008KT 10SM CLR 19/M11 A3024 RMK AO2
KMNH 182228Z AUTO 10008KT 10SM CLR 20/M11 A3024 RMK AO2
KMNH 182206Z AUTO 10003KT 10SM CLR 20/M13 A3024 RMK AO2
KMNH 182144Z AUTO 09004KT 10SM CLR 20/M12 A3025 RMK AO2
KMNH 182126Z AUTO 00000KT 10SM CLR 20/M13 A3025 RMK AO2
KMNH 182108Z AUTO 00000KT 10SM CLR 20/M13 A3025 RMK AO2
KMNH 182048Z AUTO 00000KT 10SM CLR 20/M13 A3025 RMK AO2
KMNH 182006Z AUTO 00000KT 10SM CLR 20/M13 A3025 RMK AO2
KMNH 181948Z AUTO 00000KT 10SM CLR 20/M13 A3025 RMK AO2
KMNH 181924Z AUTO 00000KT 10SM CLR 20/M14 A3027 RMK AO2
KMNH 181906Z AUTO 04006KT 10SM CLR 19/M12 A3028 RMK AO2
KMNH 181847Z AUTO 04006KT 10SM CLR 19/M13 A3029 RMK AO2
KMNH 181823Z AUTO 36008KT 10SM CLR 18/M13 A3029 RMK AO2
KMNH 181805Z AUTO 36010G16KT 10SM CLR 18/M13 A3030 RMK AO2
KMNH 181747Z AUTO 34008KT 10SM CLR 18/M13 A3030 RMK AO2
KMNH 181724Z AUTO 34010KT 10SM CLR 17/M12 A3030 RMK AO2
KMNH 181706Z AUTO 34008KT 10SM CLR 16/M11 A3029 RMK AO2
KMNH 181646Z AUTO 30008KT 10SM CLR 15/M07 A3028 RMK AO2
KMNH 181623Z AUTO 26005KT 10SM CLR 14/M07 A3028 RMK AO2
KMNH 181606Z AUTO 26006KT 10SM CLR 13/M07 A3028 RMK AO2
KMNH 181548Z AUTO 24006KT 10SM CLR 12/M09 A3028 RMK AO2
KMNH 181525Z AUTO 24006KT 10SM CLR 12/M10 A3027 RMK AO2
KMNH 181507Z AUTO 21006KT 10SM CLR 10/M08 A3027 RMK AO2
KMNH 181448Z AUTO 22007KT 10SM CLR 08/M07 A3025 RMK AO2
KMNH 181425Z AUTO 24006KT 10SM CLR 11/M12 A3025 RMK AO2
KMNH 181407Z AUTO 25006KT 7SM CLR 09/M10 A3024 RMK AO2
KMNH 181344Z AUTO 25007KT 10SM CLR 08/M09 A3022 RMK AO2
KMNH 181325Z AUTO 25004KT 10SM CLR 11/M12 A3022 RMK AO2
KMNH 181307Z AUTO 25004KT 10SM CLR 08/M11 A3022 RMK AO2
KMNH 181244Z AUTO 26007KT 10SM CLR 08/M11 A3021 RMK AO2
KMNH 181225Z AUTO 28005KT 10SM CLR 10/M12 A3021 RMK AO2
KMNH 181207Z AUTO 26005KT 10SM CLR 10/M12 A3020 RMK AO2
KMNH 181148Z AUTO 25006KT 10SM CLR 10/M11 A3020 RMK AO2
KMNH 181125Z AUTO 24007KT 10SM CLR 11/M12 A3019 RMK AO2
KMNH 181106Z AUTO 23009KT 10SM CLR 11/M12 A3018 RMK AO2
KMNH 181044Z AUTO 23009KT 10SM CLR 11/M12 A3018 RMK AO2
KMNH 181025Z AUTO 23010KT 10SM CLR 11/M12 A3017 RMK AO2
KMNH 181006Z AUTO 24009KT 10SM CLR 10/M11 A3017 RMK AO2
KMNH 180947Z AUTO 24009KT 10SM CLR 11/M11 A3018 RMK AO2
KMNH 180923Z AUTO 23008KT 10SM CLR 10/M11 A3018 RMK AO2
KMNH 180905Z AUTO 24006KT 10SM CLR 10/M11 A3019 RMK AO2
KMNH 180848Z AUTO 25009KT 10SM CLR 08/M10 A3019 RMK AO2
KMNH 180824Z AUTO 25010KT 10SM CLR 08/M10 A3019 RMK AO2
KMNH 180805Z AUTO 24010KT 10SM CLR 08/M10 A3019 RMK AO2
KMNH 180746Z AUTO 23011KT 10SM CLR 09/M09 A3019 RMK AO2
KMNH 180724Z AUTO 21009KT 10SM CLR 07/M08 A3019 RMK AO2
KMNH 180706Z AUTO 22007KT 10SM CLR 07/M08 A3020 RMK AO2
KMNH 180646Z AUTO 22008KT 10SM CLR 08/M08 A3020 RMK AO2
KMNH 180623Z AUTO 21008KT 10SM CLR 08/M08 A3020 RMK AO2
KMNH 180605Z AUTO 21010KT 10SM CLR 08/M08 A3020 RMK AO2
KMNH 180545Z AUTO 21007KT 10SM CLR 08/M09 A3021 RMK AO2
KMNH 180528Z AUTO 21008KT 10SM CLR 09/M09 A3021 RMK AO2
KMNH 180505Z AUTO 21008KT 10SM CLR 08/M09 A3022 RMK AO2
KMNH 180446Z AUTO 21009KT 10SM CLR 09/M09 A3023 RMK AO2
KMNH 180428Z AUTO 21009KT 10SM CLR 06/M08 A3023 RMK AO2
KMNH 180405Z AUTO 20008KT 10SM CLR 06/M08 A3023 RMK AO2
KMNH 180348Z AUTO 20008KT 10SM CLR 05/M08 A3023 RMK AO2
KMNH 180323Z AUTO 20008KT 10SM CLR 06/M08 A3023 RMK AO2
KMNH 180306Z AUTO 20008KT 10SM CLR 06/M08 A3023 RMK AO2
KMNH 180248Z AUTO 20007KT 10SM CLR 06/M08 A3023 RMK AO2
KMNH 180224Z AUTO 20007KT 10SM CLR 07/M08 A3023 RMK AO2
KMNH 180206Z AUTO 21009KT 10SM CLR 06/M08 A3023 RMK AO2
KMNH 180147Z AUTO 20008KT 10SM CLR 07/M07 A3024 RMK AO2
KMNH 180124Z AUTO 20006KT 10SM CLR 06/M07 A3024 RMK AO2
KMNH 180107Z AUTO 20006KT 10SM CLR 07/M07 A3024 RMK AO2
KMNH 180046Z AUTO 19007KT 10SM CLR 08/M07 A3023 RMK AO2
KMNH 180028Z AUTO 18008KT 10SM CLR 10/M08 A3023 RMK AO2
KMNH 180006Z AUTO 18007KT 10SM CLR 12/M08 A3022 RMK AO2
KMNH 172346Z AUTO 14006KT 10SM CLR 15/M07 A3022 RMK AO2
KMNH 172323Z AUTO 16007KT 10SM CLR 18/M08 A3022 RMK AO2
KMNH 172305Z AUTO 11007KT 10SM CLR 18/M10 A3022 RMK AO2
KMNH 172247Z AUTO 12006KT 10SM CLR 19/M10 A3023 RMK AO2